createdAt,value
2018-04-07T00:01:03.453Z,94.10
2018-04-07T00:03:37.186Z,94.20
2018-04-07T00:06:11.345Z,94.40
2018-04-07T00:08:45.105Z,94.50
2018-04-07T00:11:18.779Z,95.00
2018-04-07T00:13:53.013Z,95.50
2018-04-07T00:16:27.000Z,95.80
2018-04-07T00:19:01.736Z,95.70
2018-04-07T00:21:36.451Z,95.50
2018-04-07T00:24:11.481Z,95.50
2018-04-07T00:26:47.658Z,96.60
2018-04-07T00:29:23.291Z,97.30
2018-04-07T00:31:57.523Z,97.30
2018-04-07T00:34:32.059Z,96.80
2018-04-07T00:37:06.659Z,97.00
2018-04-07T00:39:41.800Z,97.00
2018-04-07T00:42:15.813Z,97.00
2018-04-07T00:44:50.420Z,97.80
2018-04-07T00:47:25.161Z,98.60
2018-04-07T00:49:58.843Z,98.70
2018-04-07T00:52:44.735Z,98.20
2018-04-07T00:55:19.378Z,98.20
2018-04-07T00:57:54.703Z,98.30
2018-04-07T01:00:29.137Z,98.10
2018-04-07T01:03:04.004Z,98.20
2018-04-07T01:05:37.760Z,98.10
2018-04-07T01:08:11.769Z,98.20
2018-04-07T01:10:46.101Z,97.30
2018-04-07T01:13:21.637Z,97.90
2018-04-07T01:15:56.371Z,98.20
2018-04-07T01:18:31.282Z,98.10
2018-04-07T01:21:05.676Z,98.10
2018-04-07T01:23:39.632Z,98.10
2018-04-07T01:26:14.924Z,98.10
2018-04-07T01:28:48.758Z,97.50
2018-04-07T01:31:24.105Z,97.70
2018-04-07T01:33:59.919Z,98.10
2018-04-07T01:36:33.879Z,98.00
2018-04-07T01:39:08.552Z,97.70
2018-04-07T01:41:43.826Z,98.00
2018-04-07T01:44:18.356Z,97.90
2018-04-07T01:46:52.883Z,97.90
2018-04-07T01:49:26.786Z,97.90
2018-04-07T01:52:01.495Z,98.80
2018-04-07T01:54:36.000Z,98.50
2018-04-07T01:57:10.636Z,98.70
2018-04-07T01:59:45.558Z,98.70
2018-04-07T02:02:20.542Z,98.70
2018-04-07T02:04:55.146Z,99.30
2018-04-07T02:07:30.030Z,99.60
2018-04-07T02:10:03.861Z,99.60
2018-04-07T02:12:38.398Z,99.20
2018-04-07T02:15:12.411Z,99.10
2018-04-07T02:17:46.160Z,99.50
2018-04-07T02:20:21.639Z,99.20
2018-04-07T02:22:56.388Z,99.50
2018-04-07T02:25:30.898Z,99.50
2018-04-07T02:28:05.311Z,99.70
2018-04-07T02:30:39.273Z,99.90
2018-04-07T02:33:13.752Z,99.90
2018-04-07T02:35:47.852Z,99.90
2018-04-07T02:38:22.692Z,99.90
2018-04-07T02:40:57.415Z,99.80
2018-04-07T02:43:31.336Z,99.80
2018-04-07T02:46:06.133Z,99.90
2018-04-07T02:48:40.896Z,99.90
2018-04-07T02:51:16.619Z,99.90
2018-04-07T02:53:50.728Z,99.90
2018-04-07T02:56:25.249Z,99.90
2018-04-07T02:58:59.981Z,99.90
2018-04-07T03:01:35.313Z,99.90
2018-04-07T03:04:10.048Z,99.90
2018-04-07T03:06:44.079Z,99.90
2018-04-07T03:09:17.966Z,99.90
2018-04-07T03:11:53.006Z,99.80
2018-04-07T03:14:27.616Z,99.90
2018-04-07T03:17:02.684Z,99.90
2018-04-07T03:19:36.452Z,99.90
2018-04-07T03:22:11.494Z,99.90
2018-04-07T03:24:46.220Z,99.90
2018-04-07T03:27:20.338Z,99.90
2018-04-07T03:29:54.842Z,99.90
2018-04-07T03:32:28.667Z,99.90
2018-04-07T03:35:02.759Z,99.90
2018-04-07T03:37:37.102Z,99.90
2018-04-07T03:40:11.532Z,99.90
2018-04-07T03:42:45.220Z,99.90
2018-04-07T03:45:20.430Z,99.90
2018-04-07T03:47:55.182Z,99.90
2018-04-07T03:50:30.299Z,99.90
2018-04-07T04:06:08.623Z,99.90
2018-04-07T04:08:43.324Z,99.90
2018-04-07T04:11:17.013Z,99.90
2018-04-07T04:13:51.680Z,99.90
2018-04-07T04:16:25.340Z,99.90
2018-04-07T04:18:59.763Z,99.90
2018-04-07T04:21:34.290Z,99.90
2018-04-07T04:24:09.128Z,99.90
2018-04-07T04:26:44.672Z,99.90
2018-04-07T04:29:18.463Z,99.90
2018-04-07T04:31:52.824Z,99.90
2018-04-07T04:34:27.205Z,99.90
2018-04-07T04:37:01.517Z,99.90
2018-04-07T04:39:35.860Z,99.90
2018-04-07T04:42:10.553Z,99.90
2018-04-07T04:44:44.975Z,99.90
2018-04-07T04:47:19.412Z,99.90
2018-04-07T04:49:53.504Z,99.90
2018-04-07T04:52:27.959Z,99.90
2018-04-07T04:55:03.308Z,99.90
2018-04-07T04:57:37.812Z,99.90
2018-04-07T05:00:12.080Z,99.90
2018-04-07T05:02:46.676Z,99.90
2018-04-07T05:05:20.533Z,99.90
2018-04-07T05:07:54.643Z,99.90
2018-04-07T05:10:28.453Z,99.90
2018-04-07T05:13:03.189Z,99.90
2018-04-07T05:15:37.177Z,99.90
2018-04-07T05:18:11.398Z,99.90
2018-04-07T05:20:46.741Z,99.90
2018-04-07T05:23:20.448Z,99.90
2018-04-07T05:25:54.381Z,99.90
2018-04-07T05:28:28.291Z,99.90
2018-04-07T05:31:02.347Z,99.90
2018-04-07T05:33:37.076Z,99.90
2018-04-07T05:36:11.637Z,99.90
2018-04-07T05:38:46.740Z,99.90
2018-04-07T05:41:22.108Z,99.90
2018-04-07T05:43:55.704Z,99.90
2018-04-07T05:46:29.823Z,99.90
2018-04-07T05:49:04.017Z,99.90
2018-04-07T05:51:37.830Z,99.90
2018-04-07T05:54:11.722Z,99.90
2018-04-07T05:56:46.240Z,99.90
2018-04-07T05:59:22.232Z,99.90
2018-04-07T06:01:56.216Z,99.90
2018-04-07T06:04:32.169Z,99.90
2018-04-07T06:07:06.505Z,99.90
2018-04-07T06:09:40.606Z,99.90
2018-04-07T06:12:15.150Z,99.90
2018-04-07T06:14:49.561Z,99.90
2018-04-07T06:17:23.869Z,99.90
2018-04-07T06:19:57.559Z,99.90
2018-04-07T06:22:31.676Z,99.90
2018-04-07T06:25:06.408Z,99.90
2018-04-07T06:27:43.290Z,99.90
2018-04-07T06:30:17.005Z,99.90
2018-04-07T06:32:51.808Z,99.90
2018-04-07T06:35:26.136Z,99.90
2018-04-07T06:38:01.692Z,99.90
2018-04-07T06:40:35.594Z,99.90
2018-04-07T06:43:09.192Z,99.90
2018-04-07T06:45:43.196Z,99.90
2018-04-07T06:48:17.719Z,99.90
2018-04-07T06:50:51.820Z,99.90
2018-04-07T06:53:26.541Z,99.90
2018-04-07T06:56:01.579Z,99.90
2018-04-07T06:58:36.721Z,98.90
2018-04-07T07:01:13.173Z,98.60
2018-04-07T07:03:47.908Z,98.10
2018-04-07T07:06:23.887Z,97.90
2018-04-07T07:08:59.041Z,98.10
2018-04-07T07:11:33.724Z,98.10
2018-04-07T07:14:08.160Z,97.50
2018-04-07T07:16:43.793Z,97.50
2018-04-07T07:19:17.512Z,97.40
2018-04-07T07:21:51.744Z,96.70
2018-04-07T07:24:26.328Z,96.60
2018-04-07T07:27:01.570Z,95.20
2018-04-07T07:29:36.233Z,95.40
2018-04-07T07:32:11.042Z,95.20
2018-04-07T07:34:45.771Z,94.40
2018-04-07T07:37:19.575Z,94.40
2018-04-07T07:39:54.376Z,93.70
2018-04-07T07:42:31.819Z,93.70
2018-04-07T07:45:07.874Z,92.70
2018-04-07T07:47:48.388Z,93.00
2018-04-07T07:50:24.274Z,91.70
2018-04-07T07:52:58.375Z,91.70
2018-04-07T07:55:33.595Z,90.00
2018-04-07T07:58:07.605Z,90.00
2018-04-07T08:00:42.295Z,87.80
2018-04-07T08:03:17.118Z,87.30
2018-04-07T08:05:52.387Z,85.70
2018-04-07T08:08:26.395Z,85.80
2018-04-07T08:11:00.603Z,86.30
2018-04-07T08:13:38.170Z,84.60
2018-04-07T08:16:14.776Z,83.90
2018-04-07T08:18:49.321Z,80.70
2018-04-07T08:21:23.831Z,79.10
2018-04-07T08:23:58.646Z,82.10
2018-04-07T08:26:32.788Z,82.10
2018-04-07T08:29:06.568Z,80.90
2018-04-07T08:31:40.288Z,81.20
2018-04-07T08:34:15.200Z,79.10
2018-04-07T08:36:50.554Z,76.70
2018-04-07T08:39:25.591Z,79.40
2018-04-07T08:42:03.177Z,78.00
2018-04-07T08:44:37.177Z,78.00
2018-04-07T08:47:12.366Z,75.80
2018-04-07T08:49:46.341Z,75.70
2018-04-07T08:52:21.884Z,74.70
2018-04-07T08:54:55.880Z,74.40
2018-04-07T08:57:29.613Z,72.50
2018-04-07T09:00:03.421Z,69.70
2018-04-07T09:02:38.832Z,73.00
2018-04-07T09:05:14.576Z,70.20
2018-04-07T09:07:49.097Z,69.00
2018-04-07T09:10:22.893Z,69.00
2018-04-07T09:12:57.816Z,70.60
2018-04-07T09:15:31.572Z,70.40
2018-04-07T09:18:05.982Z,69.10
2018-04-07T09:20:40.292Z,68.80
2018-04-07T09:23:14.885Z,70.10
2018-04-07T09:25:49.402Z,70.10
2018-04-07T09:28:23.542Z,70.10
2018-04-07T09:31:02.925Z,70.80
2018-04-07T09:33:36.786Z,70.80
2018-04-07T09:36:11.527Z,66.00
2018-04-07T09:38:45.455Z,66.00
2018-04-07T09:41:22.513Z,66.80
2018-04-07T09:43:56.596Z,67.70
2018-04-07T09:46:32.743Z,62.10
2018-04-07T09:49:08.943Z,59.00
2018-04-07T09:51:43.517Z,58.80
2018-04-07T09:54:24.433Z,60.30
2018-04-07T09:56:58.232Z,55.00
2018-04-07T09:59:34.437Z,60.10
2018-04-07T10:02:09.323Z,59.30
2018-04-07T10:04:43.519Z,59.30
2018-04-07T10:07:17.218Z,64.00
2018-04-07T10:09:52.176Z,62.40
2018-04-07T10:12:26.072Z,62.10
2018-04-07T10:15:00.893Z,63.40
2018-04-07T10:17:34.792Z,63.10
2018-04-07T10:20:09.537Z,57.00
2018-04-07T10:22:43.333Z,57.00
2018-04-07T10:25:17.244Z,54.00
2018-04-07T10:27:52.502Z,57.20
2018-04-07T10:30:26.475Z,56.60
2018-04-07T10:33:01.692Z,54.80
2018-04-07T10:35:36.063Z,51.50
2018-04-07T10:38:10.784Z,53.30
2018-04-07T10:40:44.696Z,58.10
2018-04-07T10:43:19.643Z,53.70
2018-04-07T10:45:54.208Z,53.30
2018-04-07T10:48:28.019Z,53.20
2018-04-07T10:51:02.335Z,51.80
2018-04-07T10:53:36.269Z,50.80
2018-04-07T10:56:10.513Z,50.80
2018-04-07T10:58:44.068Z,46.50
2018-04-07T11:01:18.895Z,46.40
2018-04-07T11:03:53.597Z,49.20
2018-04-07T11:06:28.132Z,48.40
2018-04-07T11:09:02.783Z,49.90
2018-04-07T11:11:37.792Z,47.50
2018-04-07T11:14:12.667Z,47.30
2018-04-07T11:16:46.318Z,46.70
2018-04-07T11:19:21.368Z,44.10
2018-04-07T11:21:55.174Z,44.10
2018-04-07T11:24:29.764Z,46.40
2018-04-07T11:27:03.905Z,46.40
2018-04-07T11:29:37.910Z,44.80
2018-04-07T11:32:12.729Z,43.00
2018-04-07T11:34:46.582Z,43.00
2018-04-07T11:37:20.454Z,42.10
2018-04-07T11:39:54.673Z,42.90
2018-04-07T11:42:28.666Z,42.10
2018-04-07T11:45:03.029Z,42.10
2018-04-07T11:47:37.709Z,42.90
2018-04-07T11:50:12.130Z,41.30
2018-04-07T11:52:46.524Z,40.50
2018-04-07T11:55:21.178Z,38.70
2018-04-07T11:57:56.492Z,39.20
2018-04-07T12:00:31.032Z,39.10
2018-04-07T12:03:05.644Z,38.70
2018-04-07T12:05:39.497Z,38.80
2018-04-07T12:08:14.280Z,36.50
2018-04-07T12:10:48.284Z,36.40
2018-04-07T12:13:23.643Z,34.60
2018-04-07T12:15:58.272Z,36.00
2018-04-07T12:18:33.009Z,35.30
2018-04-07T12:21:06.784Z,35.30
2018-04-07T12:23:42.148Z,31.50
2018-04-07T12:26:16.692Z,32.50
2018-04-07T12:28:51.411Z,32.80
2018-04-07T12:31:26.492Z,32.60
2018-04-07T12:34:00.866Z,32.60
2018-04-07T12:36:35.642Z,30.60
2018-04-07T12:39:09.572Z,30.50
2018-04-07T12:41:43.483Z,31.90
2018-04-07T12:44:18.394Z,30.00
2018-04-07T12:46:54.287Z,29.50
2018-04-07T12:49:29.861Z,29.00
2018-04-07T12:52:04.502Z,29.50
2018-04-07T12:54:39.306Z,28.00
2018-04-07T12:57:13.115Z,28.00
2018-04-07T12:59:46.896Z,26.40
2018-04-07T13:02:21.432Z,24.00
2018-04-07T13:04:56.379Z,23.50
2018-04-07T13:07:32.411Z,21.00
2018-04-07T13:10:05.963Z,21.10
2018-04-07T13:12:39.882Z,20.80
2018-04-07T13:15:15.743Z,21.80
2018-04-07T13:17:50.265Z,21.40
2018-04-07T13:20:24.998Z,20.40
2018-04-07T13:22:59.381Z,20.30
2018-04-07T13:25:33.362Z,21.90
2018-04-07T13:28:07.012Z,20.70
2018-04-07T13:30:42.849Z,21.30
2018-04-07T13:33:17.164Z,20.10
2018-04-07T13:35:51.901Z,20.40
2018-04-07T13:38:26.425Z,20.30
2018-04-07T13:41:00.797Z,20.30
2018-04-07T13:43:34.829Z,19.10
2018-04-07T13:46:11.202Z,17.40
2018-04-07T13:48:46.080Z,17.60
2018-04-07T13:51:20.883Z,16.40
2018-04-07T13:53:55.754Z,16.30
2018-04-07T13:56:29.909Z,16.30
2018-04-07T13:59:03.813Z,16.50
2018-04-07T14:01:37.793Z,16.40
2018-04-07T14:04:13.026Z,15.50
2018-04-07T14:06:47.362Z,15.80
2018-04-07T14:09:22.000Z,15.80
2018-04-07T14:11:56.173Z,15.70
2018-04-07T14:14:30.926Z,17.80
2018-04-07T14:17:05.668Z,15.60
2018-04-07T14:19:40.991Z,15.60
2018-04-07T14:22:15.322Z,18.00
2018-04-07T14:24:49.181Z,16.60
2018-04-07T14:27:23.824Z,17.20
2018-04-07T14:29:58.382Z,18.00
2018-04-07T14:32:33.129Z,17.90
2018-04-07T14:35:08.384Z,17.20
2018-04-07T14:37:42.308Z,17.30
2018-04-07T14:40:16.772Z,17.00
2018-04-07T14:42:51.474Z,16.70
2018-04-07T14:45:25.360Z,16.60
2018-04-07T14:47:59.820Z,18.40
2018-04-07T14:50:34.536Z,17.30
2018-04-07T14:53:08.929Z,17.50
2018-04-07T14:55:43.293Z,18.30
2018-04-07T14:58:17.716Z,19.10
2018-04-07T15:00:51.728Z,19.00
2018-04-07T15:03:25.307Z,17.50
2018-04-07T15:06:00.212Z,19.10
2018-04-07T15:08:34.861Z,18.50
2018-04-07T15:11:09.480Z,18.90
2018-04-07T15:13:44.643Z,19.30
2018-04-07T15:16:18.511Z,19.30
2018-04-07T15:18:53.550Z,18.50
2018-04-07T15:21:28.264Z,18.60
2018-04-07T15:24:02.694Z,18.40
2018-04-07T15:26:36.256Z,18.30
2018-04-07T15:29:10.089Z,18.60
2018-04-07T15:31:43.654Z,19.80
2018-04-07T15:34:17.244Z,19.00
2018-04-07T15:36:51.062Z,18.70
2018-04-07T15:39:24.793Z,19.00
2018-04-07T15:41:58.503Z,20.30
2018-04-07T15:44:32.099Z,19.70
2018-04-07T15:47:06.132Z,19.30
2018-04-07T15:49:39.819Z,19.70
2018-04-07T15:52:13.665Z,20.90
2018-04-07T15:54:47.220Z,22.80
2018-04-07T15:57:20.749Z,23.10
2018-04-07T15:59:54.428Z,22.10
2018-04-07T16:02:27.994Z,23.70
2018-04-07T16:05:01.888Z,23.80
2018-04-07T16:07:36.575Z,25.10
2018-04-07T16:10:11.584Z,26.90
2018-04-07T16:12:46.219Z,27.00
2018-04-07T16:15:20.548Z,27.00
2018-04-07T16:17:54.351Z,25.80
2018-04-07T16:20:31.672Z,26.60
2018-04-07T16:23:06.750Z,27.20
2018-04-07T16:25:41.171Z,27.20
2018-04-07T16:28:14.793Z,27.80
2018-04-07T16:30:50.469Z,28.20
2018-04-07T16:33:24.747Z,29.60
2018-04-07T16:35:58.748Z,29.50
2018-04-07T16:38:33.384Z,31.90
2018-04-07T16:41:07.804Z,31.70
2018-04-07T16:43:41.908Z,31.80
2018-04-07T16:46:16.554Z,32.00
2018-04-07T16:48:50.617Z,31.90
2018-04-07T16:51:24.570Z,31.30
2018-04-07T16:53:58.556Z,32.40
2018-04-07T16:56:32.366Z,32.30
2018-04-07T16:59:06.888Z,31.90
2018-04-07T17:01:40.604Z,31.90
2018-04-07T17:04:15.300Z,32.30
2018-04-07T17:06:49.729Z,32.30
2018-04-07T17:09:24.445Z,32.10
2018-04-07T17:11:59.286Z,34.00
2018-04-07T17:14:33.367Z,33.90
2018-04-07T17:17:08.150Z,32.50
2018-04-07T17:19:43.263Z,32.50
2018-04-07T17:22:17.157Z,32.50
2018-04-07T17:24:52.501Z,31.70
2018-04-07T17:27:27.042Z,32.00
2018-04-07T17:30:01.968Z,31.90
2018-04-07T17:32:37.098Z,32.80
2018-04-07T17:35:11.864Z,34.20
2018-04-07T17:37:45.752Z,34.20
2018-04-07T17:40:22.751Z,35.00
2018-04-07T17:42:56.517Z,34.90
2018-04-07T17:45:30.840Z,36.20
2018-04-07T17:48:05.362Z,36.70
2018-04-07T17:50:42.020Z,38.00
2018-04-07T17:53:16.641Z,40.10
2018-04-07T17:55:51.399Z,40.20
2018-04-07T17:58:25.700Z,40.10
2018-04-07T18:00:59.998Z,41.50
2018-04-07T18:03:34.318Z,42.80
2018-04-07T18:06:09.250Z,43.90
2018-04-07T18:08:43.149Z,43.80
2018-04-07T18:11:17.974Z,45.80
2018-04-07T18:13:52.960Z,47.40
2018-04-07T18:16:27.458Z,48.80
2018-04-07T18:19:02.777Z,48.90
2018-04-07T18:21:36.586Z,48.80
2018-04-07T18:24:11.735Z,48.80
2018-04-07T18:26:46.549Z,49.60
2018-04-07T18:29:20.876Z,49.70
2018-04-07T18:31:54.969Z,50.50
2018-04-07T18:34:28.789Z,51.70
2018-04-07T18:37:04.621Z,54.50
2018-04-07T18:39:38.860Z,57.20
2018-04-07T18:42:14.292Z,63.90
2018-04-07T18:44:49.515Z,67.00
2018-04-07T18:47:26.989Z,68.00
2018-04-07T18:50:02.993Z,65.10
2018-04-07T18:52:39.297Z,64.70
2018-04-07T18:55:14.884Z,62.70
2018-04-07T18:57:49.096Z,62.70
2018-04-07T19:00:23.245Z,63.70
2018-04-07T19:02:57.132Z,65.30
2018-04-07T19:05:31.055Z,65.30
2018-04-07T19:08:05.850Z,64.90
2018-04-07T19:10:39.887Z,64.90
2018-04-07T19:13:13.781Z,66.30
2018-04-07T19:15:48.930Z,69.40
2018-04-07T19:18:23.945Z,72.20
2018-04-07T19:20:59.488Z,72.50
2018-04-07T19:23:34.855Z,72.50
2018-04-07T19:26:08.599Z,72.20
2018-04-07T19:28:44.440Z,72.20
2018-04-07T19:31:19.623Z,71.30
2018-04-07T19:33:54.951Z,71.30
2018-04-07T19:36:31.424Z,74.80
2018-04-07T19:39:07.049Z,76.20
2018-04-07T19:41:43.092Z,76.10
2018-04-07T19:44:17.667Z,76.40
2018-04-07T19:46:52.892Z,76.00
2018-04-07T19:49:27.836Z,76.70
2018-04-07T19:52:01.784Z,77.40
2018-04-07T19:54:36.357Z,77.00
2018-04-07T19:57:11.949Z,79.40
2018-04-07T19:59:45.825Z,79.20
2018-04-07T20:02:20.838Z,79.10
2018-04-07T20:04:56.352Z,79.50
2018-04-07T20:07:31.106Z,79.50
2018-04-07T20:10:06.038Z,78.40
2018-04-07T20:12:42.521Z,79.00
2018-04-07T20:15:16.519Z,78.90
2018-04-07T20:17:52.440Z,77.50
2018-04-07T20:20:29.419Z,77.50
2018-04-07T20:23:04.137Z,76.50
2018-04-07T20:25:38.055Z,76.60
2018-04-07T20:28:12.916Z,79.60
2018-04-07T20:30:48.079Z,81.70
2018-04-07T20:33:22.888Z,81.50
2018-04-07T20:35:58.046Z,81.80
2018-04-07T20:38:32.643Z,83.20
2018-04-07T20:41:06.760Z,83.10
2018-04-07T20:43:42.804Z,84.70
2018-04-07T20:46:17.526Z,85.80
2018-04-07T20:48:52.459Z,85.80
2018-04-07T20:51:28.596Z,86.40
2018-04-07T20:54:04.577Z,87.10
2018-04-07T20:56:45.575Z,85.40
2018-04-07T20:59:24.157Z,84.60
2018-04-07T21:01:58.295Z,84.60
2018-04-07T21:04:33.527Z,87.50
2018-04-07T21:07:08.321Z,87.10
2018-04-07T21:09:42.998Z,87.10
2018-04-07T21:12:16.869Z,86.80
2018-04-07T21:14:57.838Z,88.00
2018-04-07T21:17:33.827Z,89.30
2018-04-07T21:20:07.610Z,89.80
2018-04-07T21:22:44.576Z,90.00
2018-04-07T21:25:18.504Z,88.10
2018-04-07T21:27:53.535Z,86.10
2018-04-07T21:30:27.954Z,86.00
2018-04-07T21:33:02.756Z,86.00
2018-04-07T21:35:37.274Z,86.00
2018-04-07T21:38:12.011Z,85.90
2018-04-07T21:40:45.699Z,85.90
2018-04-07T21:43:20.143Z,88.20
2018-04-07T21:45:54.777Z,88.70
2018-04-07T21:48:30.543Z,88.80
2018-04-07T21:51:04.964Z,90.10
2018-04-07T21:53:38.761Z,90.10
2018-04-07T21:56:13.657Z,89.30
2018-04-07T21:58:47.490Z,89.40
2018-04-07T22:01:22.237Z,90.30
2018-04-07T22:03:56.617Z,90.90
2018-04-07T22:06:31.619Z,90.90
2018-04-07T22:09:06.397Z,91.00
2018-04-07T22:11:40.274Z,90.60
2018-04-07T22:14:14.602Z,90.80
2018-04-07T22:16:49.241Z,91.20
2018-04-07T22:19:23.856Z,91.70
2018-04-07T22:21:57.763Z,91.70
2018-04-07T22:24:31.347Z,91.70
2018-04-07T22:27:05.460Z,91.70
2018-04-07T22:29:41.666Z,92.20
2018-04-07T22:32:16.230Z,92.60
2018-04-07T22:34:50.149Z,92.60
2018-04-07T22:37:24.756Z,92.10
2018-04-07T22:39:58.465Z,92.10
2018-04-07T22:42:32.604Z,91.90
2018-04-07T22:45:07.516Z,93.20
2018-04-07T22:47:41.433Z,93.20
2018-04-07T22:50:15.270Z,92.80
2018-04-07T22:52:49.989Z,93.40
2018-04-07T22:55:24.661Z,93.50
2018-04-07T22:57:58.658Z,93.50
2018-04-07T23:00:33.120Z,93.40
2018-04-07T23:03:07.812Z,93.10
2018-04-07T23:05:42.268Z,93.10
2018-04-07T23:08:16.072Z,93.20
2018-04-07T23:10:49.980Z,93.90
2018-04-07T23:13:23.945Z,94.10
2018-04-07T23:15:58.073Z,94.40
2018-04-07T23:18:32.182Z,94.20
2018-04-07T23:21:06.030Z,94.70
2018-04-07T23:23:40.822Z,94.20
2018-04-07T23:26:15.170Z,94.20
2018-04-07T23:28:50.172Z,94.70
2018-04-07T23:31:24.207Z,94.60
2018-04-07T23:33:58.127Z,94.80
2018-04-07T23:36:32.604Z,94.90
2018-04-07T23:39:06.304Z,94.90
2018-04-07T23:41:39.929Z,94.50
2018-04-07T23:44:14.653Z,95.10
2018-04-07T23:46:48.513Z,95.20
2018-04-07T23:49:22.678Z,95.70
2018-04-07T23:51:56.734Z,95.80
2018-04-07T23:54:31.420Z,95.90
2018-04-07T23:57:06.012Z,96.20
2018-04-07T23:59:39.873Z,96.20
